sensor_id;sensor_type;location;lat;lon;timestamp;pressure;altitude;pressure_sealevel;temperature;humidity
29461;BME280;16428;47.836;35.106;2024-01-06T00:00:20;101466.66;;;2.42;100.00
29461;BME280;16428;47.836;35.106;2024-01-06T00:02:51;101450.41;;;2.59;100.00
29461;BME280;16428;47.836;35.106;2024-01-06T00:05:19;101462.91;;;2.32;100.00
29461;BME280;16428;47.836;35.106;2024-01-06T00:07:46;101459.75;;;2.52;100.00
29461;BME280;16428;47.836;35.106;2024-01-06T00:10:13;101464.97;;;2.41;100.00
29461;BME280;16428;47.836;35.106;2024-01-06T00:12:45;101472.38;;;2.48;100.00
29461;BME280;16428;47.836;35.106;2024-01-06T00:15:13;101476.72;;;2.50;100.00
29461;BME280;16428;47.836;35.106;2024-01-06T00:17:40;101469.59;;;2.50;100.00
29461;BME280;16428;47.836;35.106;2024-01-06T00:20:07;101469.81;;;2.47;100.00
29461;BME280;16428;47.836;35.106;2024-01-06T00:22:35;101466.31;;;2.46;100.00
29461;BME280;16428;47.836;35.106;2024-01-06T00:25:02;101475.56;;;2.54;100.00
29461;BME280;16428;47.836;35.106;2024-01-06T00:27:30;101464.41;;;2.36;100.00
29461;BME280;16428;47.836;35.106;2024-01-06T00:29:57;101464.22;;;2.39;100.00
29461;BME280;16428;47.836;35.106;2024-01-06T00:32:24;101463.78;;;2.32;100.00
29461;BME280;16428;47.836;35.106;2024-01-06T00:34:51;101467.16;;;2.22;100.00
29461;BME280;16428;47.836;35.106;2024-01-06T00:37:18;101477.78;;;2.34;100.00
29461;BME280;16428;47.836;35.106;2024-01-06T00:39:46;101477.88;;;2.45;100.00
29461;BME280;16428;47.836;35.106;2024-01-06T00:42:14;101475.03;;;2.36;100.00
29461;BME280;16428;47.836;35.106;2024-01-06T00:44:41;101481.78;;;2.15;100.00
29461;BME280;16428;47.836;35.106;2024-01-06T00:47:08;101468.66;;;2.26;100.00
29461;BME280;16428;47.836;35.106;2024-01-06T00:49:35;101464.63;;;2.07;100.00
29461;BME280;16428;47.836;35.106;2024-01-06T00:52:03;101465.69;;;2.18;100.00
29461;BME280;16428;47.836;35.106;2024-01-06T00:54:30;101469.38;;;2.02;100.00
29461;BME280;16428;47.836;35.106;2024-01-06T00:56:57;101486.22;;;2.01;100.00
29461;BME280;16428;47.836;35.106;2024-01-06T00:59:24;101483.91;;;2.09;100.00
29461;BME280;16428;47.836;35.106;2024-01-06T01:01:52;101485.63;;;2.10;100.00
29461;BME280;16428;47.836;35.106;2024-01-06T01:04:19;101489.41;;;2.06;100.00
29461;BME280;16428;47.836;35.106;2024-01-06T01:06:46;101501.25;;;2.01;100.00
29461;BME280;16428;47.836;35.106;2024-01-06T01:09:13;101505.72;;;2.00;100.00
29461;BME280;16428;47.836;35.106;2024-01-06T01:11:43;101499.53;;;1.87;100.00
29461;BME280;16428;47.836;35.106;2024-01-06T01:14:10;101505.72;;;2.00;100.00
29461;BME280;16428;47.836;35.106;2024-01-06T01:16:38;101501.44;;;1.85;100.00
29461;BME280;16428;47.836;35.106;2024-01-06T01:19:06;101505.47;;;1.78;100.00
29461;BME280;16428;47.836;35.106;2024-01-06T01:21:33;101516.00;;;1.92;100.00
29461;BME280;16428;47.836;35.106;2024-01-06T01:24:00;101501.22;;;1.75;100.00
29461;BME280;16428;47.836;35.106;2024-01-06T01:26:27;101507.91;;;1.81;100.00
29461;BME280;16428;47.836;35.106;2024-01-06T01:28:54;101500.91;;;1.80;100.00
29461;BME280;16428;47.836;35.106;2024-01-06T01:31:22;101499.69;;;1.71;100.00
29461;BME280;16428;47.836;35.106;2024-01-06T01:33:49;101502.63;;;1.81;100.00
29461;BME280;16428;47.836;35.106;2024-01-06T01:36:16;101507.66;;;1.98;100.00
29461;BME280;16428;47.836;35.106;2024-01-06T01:38:45;101510.69;;;1.92;100.00
29461;BME280;16428;47.836;35.106;2024-01-06T01:41:12;101501.25;;;1.88;100.00
29461;BME280;16428;47.836;35.106;2024-01-06T01:43:39;101512.97;;;1.84;100.00
29461;BME280;16428;47.836;35.106;2024-01-06T01:46:06;101515.03;;;1.93;100.00
29461;BME280;16428;47.836;35.106;2024-01-06T01:48:33;101514.19;;;1.93;100.00
29461;BME280;16428;47.836;35.106;2024-01-06T01:51:02;101507.56;;;1.73;100.00
29461;BME280;16428;47.836;35.106;2024-01-06T01:53:29;101507.16;;;1.79;100.00
29461;BME280;16428;47.836;35.106;2024-01-06T01:55:58;101511.84;;;1.88;100.00
29461;BME280;16428;47.836;35.106;2024-01-06T01:58:25;101523.31;;;2.01;100.00
29461;BME280;16428;47.836;35.106;2024-01-06T02:00:53;101527.03;;;1.72;100.00
29461;BME280;16428;47.836;35.106;2024-01-06T02:03:20;101525.28;;;1.58;100.00
29461;BME280;16428;47.836;35.106;2024-01-06T02:05:49;101534.47;;;1.67;100.00
29461;BME280;16428;47.836;35.106;2024-01-06T02:08:16;101528.53;;;1.76;100.00
29461;BME280;16428;47.836;35.106;2024-01-06T02:10:43;101540.59;;;1.67;100.00
29461;BME280;16428;47.836;35.106;2024-01-06T02:13:11;101548.84;;;1.63;100.00
29461;BME280;16428;47.836;35.106;2024-01-06T02:15:38;101549.41;;;1.68;100.00
29461;BME280;16428;47.836;35.106;2024-01-06T02:18:06;101543.34;;;1.66;100.00
29461;BME280;16428;47.836;35.106;2024-01-06T02:20:34;101545.53;;;1.59;100.00
29461;BME280;16428;47.836;35.106;2024-01-06T02:23:01;101549.78;;;1.62;100.00
29461;BME280;16428;47.836;35.106;2024-01-06T02:25:29;101554.56;;;1.69;100.00
29461;BME280;16428;47.836;35.106;2024-01-06T02:27:56;101557.34;;;1.68;100.00
29461;BME280;16428;47.836;35.106;2024-01-06T02:30:23;101560.53;;;1.73;100.00
29461;BME280;16428;47.836;35.106;2024-01-06T02:32:51;101552.44;;;1.62;100.00
29461;BME280;16428;47.836;35.106;2024-01-06T02:35:18;101540.38;;;1.70;100.00
29461;BME280;16428;47.836;35.106;2024-01-06T02:37:45;101554.22;;;1.88;100.00
29461;BME280;16428;47.836;35.106;2024-01-06T02:40:13;101559.38;;;1.77;100.00
29461;BME280;16428;47.836;35.106;2024-01-06T02:42:41;101565.06;;;1.71;100.00
29461;BME280;16428;47.836;35.106;2024-01-06T02:45:08;101564.06;;;1.59;100.00
29461;BME280;16428;47.836;35.106;2024-01-06T02:47:36;101573.97;;;1.70;100.00
29461;BME280;16428;47.836;35.106;2024-01-06T02:50:05;101579.06;;;1.73;100.00
29461;BME280;16428;47.836;35.106;2024-01-06T02:52:32;101581.91;;;1.70;100.00
29461;BME280;16428;47.836;35.106;2024-01-06T02:54:59;101576.41;;;1.73;100.00
29461;BME280;16428;47.836;35.106;2024-01-06T02:57:30;101573.06;;;1.57;100.00
29461;BME280;16428;47.836;35.106;2024-01-06T02:59:57;101563.06;;;1.48;100.00
29461;BME280;16428;47.836;35.106;2024-01-06T03:02:25;101567.22;;;1.52;100.00
29461;BME280;16428;47.836;35.106;2024-01-06T03:04:52;101563.81;;;1.50;100.00
29461;BME280;16428;47.836;35.106;2024-01-06T03:07:19;101556.94;;;1.33;100.00
29461;BME280;16428;47.836;35.106;2024-01-06T03:09:46;101552.13;;;1.25;100.00
29461;BME280;16428;47.836;35.106;2024-01-06T03:12:13;101562.06;;;1.36;100.00
29461;BME280;16428;47.836;35.106;2024-01-06T03:14:40;101567.47;;;1.61;100.00
29461;BME280;16428;47.836;35.106;2024-01-06T03:17:07;101564.78;;;1.34;100.00
29461;BME280;16428;47.836;35.106;2024-01-06T03:19:37;101568.56;;;1.30;100.00
29461;BME280;16428;47.836;35.106;2024-01-06T03:22:04;101570.47;;;1.14;100.00
29461;BME280;16428;47.836;35.106;2024-01-06T03:24:32;101571.97;;;1.32;100.00
29461;BME280;16428;47.836;35.106;2024-01-06T03:26:58;101569.81;;;1.11;100.00
29461;BME280;16428;47.836;35.106;2024-01-06T03:29:25;101572.56;;;0.95;100.00
29461;BME280;16428;47.836;35.106;2024-01-06T03:31:53;101574.84;;;0.87;100.00
29461;BME280;16428;47.836;35.106;2024-01-06T03:34:20;101572.19;;;1.01;100.00
29461;BME280;16428;47.836;35.106;2024-01-06T03:36:47;101591.06;;;0.95;100.00
29461;BME280;16428;47.836;35.106;2024-01-06T03:39:14;101589.75;;;1.02;100.00
29461;BME280;16428;47.836;35.106;2024-01-06T03:41:41;101600.91;;;1.07;100.00
29461;BME280;16428;47.836;35.106;2024-01-06T03:44:08;101603.34;;;1.10;100.00
29461;BME280;16428;47.836;35.106;2024-01-06T03:46:35;101596.00;;;1.15;100.00
29461;BME280;16428;47.836;35.106;2024-01-06T03:49:02;101601.84;;;0.92;100.00
29461;BME280;16428;47.836;35.106;2024-01-06T03:51:30;101606.00;;;0.96;100.00
29461;BME280;16428;47.836;35.106;2024-01-06T03:53:57;101631.16;;;1.03;100.00
29461;BME280;16428;47.836;35.106;2024-01-06T03:56:24;101625.47;;;0.95;100.00
29461;BME280;16428;47.836;35.106;2024-01-06T03:58:51;101644.00;;;1.09;100.00
29461;BME280;16428;47.836;35.106;2024-01-06T04:01:18;101652.59;;;0.98;100.00
29461;BME280;16428;47.836;35.106;2024-01-06T04:03:45;101655.91;;;1.16;100.00
29461;BME280;16428;47.836;35.106;2024-01-06T04:06:12;101650.53;;;1.03;100.00
29461;BME280;16428;47.836;35.106;2024-01-06T04:08:40;101653.63;;;0.96;100.00
29461;BME280;16428;47.836;35.106;2024-01-06T04:11:10;101657.22;;;0.95;100.00
29461;BME280;16428;47.836;35.106;2024-01-06T04:13:37;101651.97;;;0.79;100.00
29461;BME280;16428;47.836;35.106;2024-01-06T04:16:04;101644.41;;;0.59;100.00
29461;BME280;16428;47.836;35.106;2024-01-06T04:18:32;101648.78;;;0.74;100.00
29461;BME280;16428;47.836;35.106;2024-01-06T04:20:59;101647.88;;;0.89;100.00
29461;BME280;16428;47.836;35.106;2024-01-06T04:23:26;101657.16;;;0.66;100.00
29461;BME280;16428;47.836;35.106;2024-01-06T04:25:53;101668.19;;;0.59;100.00
29461;BME280;16428;47.836;35.106;2024-01-06T04:28:20;101671.69;;;0.59;100.00
29461;BME280;16428;47.836;35.106;2024-01-06T04:30:47;101673.19;;;0.63;100.00
29461;BME280;16428;47.836;35.106;2024-01-06T04:33:14;101668.75;;;0.64;100.00
29461;BME280;16428;47.836;35.106;2024-01-06T04:35:42;101673.91;;;0.51;100.00
29461;BME280;16428;47.836;35.106;2024-01-06T04:38:08;101679.59;;;0.75;100.00
29461;BME280;16428;47.836;35.106;2024-01-06T04:40:36;101679.69;;;0.88;100.00
29461;BME280;16428;47.836;35.106;2024-01-06T04:43:03;101668.88;;;0.77;100.00
29461;BME280;16428;47.836;35.106;2024-01-06T04:45:30;101670.41;;;0.81;100.00
29461;BME280;16428;47.836;35.106;2024-01-06T04:47:57;101672.81;;;0.55;100.00
29461;BME280;16428;47.836;35.106;2024-01-06T04:50:25;101671.94;;;0.85;100.00
29461;BME280;16428;47.836;35.106;2024-01-06T04:52:52;101674.56;;;0.70;100.00
29461;BME280;16428;47.836;35.106;2024-01-06T04:55:18;101682.66;;;0.67;100.00
29461;BME280;16428;47.836;35.106;2024-01-06T04:57:46;101681.38;;;0.75;100.00
29461;BME280;16428;47.836;35.106;2024-01-06T05:00:13;101688.03;;;0.66;100.00
29461;BME280;16428;47.836;35.106;2024-01-06T05:02:41;101693.78;;;0.88;100.00
29461;BME280;16428;47.836;35.106;2024-01-06T05:05:08;101702.31;;;0.78;100.00
29461;BME280;16428;47.836;35.106;2024-01-06T05:07:35;101692.63;;;0.62;100.00
29461;BME280;16428;47.836;35.106;2024-01-06T05:10:04;101687.00;;;0.68;100.00
29461;BME280;16428;47.836;35.106;2024-01-06T05:12:31;101693.81;;;0.73;100.00
29461;BME280;16428;47.836;35.106;2024-01-06T05:14:58;101699.47;;;0.66;100.00
29461;BME280;16428;47.836;35.106;2024-01-06T05:17:25;101689.56;;;0.70;100.00
29461;BME280;16428;47.836;35.106;2024-01-06T05:19:54;101681.00;;;0.81;100.00
29461;BME280;16428;47.836;35.106;2024-01-06T05:22:21;101684.22;;;0.86;100.00
29461;BME280;16428;47.836;35.106;2024-01-06T05:24:48;101680.44;;;0.76;100.00
29461;BME280;16428;47.836;35.106;2024-01-06T05:27:20;101693.34;;;0.80;100.00
29461;BME280;16428;47.836;35.106;2024-01-06T05:29:47;101708.78;;;0.88;100.00
29461;BME280;16428;47.836;35.106;2024-01-06T05:32:16;101708.84;;;0.72;100.00
29461;BME280;16428;47.836;35.106;2024-01-06T05:34:45;101697.63;;;0.53;100.00
29461;BME280;16428;47.836;35.106;2024-01-06T05:37:12;101698.44;;;0.69;100.00
29461;BME280;16428;47.836;35.106;2024-01-06T05:39:39;101708.84;;;0.72;100.00
29461;BME280;16428;47.836;35.106;2024-01-06T05:42:09;101694.97;;;0.83;100.00
29461;BME280;16428;47.836;35.106;2024-01-06T05:44:38;101702.25;;;0.79;100.00
29461;BME280;16428;47.836;35.106;2024-01-06T05:47:05;101702.91;;;0.83;100.00
29461;BME280;16428;47.836;35.106;2024-01-06T05:49:32;101700.31;;;1.11;100.00
29461;BME280;16428;47.836;35.106;2024-01-06T05:51:59;101708.81;;;1.02;100.00
29461;BME280;16428;47.836;35.106;2024-01-06T05:54:27;101716.38;;;1.08;100.00
29461;BME280;16428;47.836;35.106;2024-01-06T05:56:55;101711.75;;;1.12;100.00
29461;BME280;16428;47.836;35.106;2024-01-06T05:59:22;101711.72;;;0.97;100.00
29461;BME280;16428;47.836;35.106;2024-01-06T06:01:49;101716.31;;;1.24;100.00
29461;BME280;16428;47.836;35.106;2024-01-06T06:04:16;101715.28;;;1.26;100.00
29461;BME280;16428;47.836;35.106;2024-01-06T06:06:44;101712.63;;;1.40;100.00
29461;BME280;16428;47.836;35.106;2024-01-06T06:09:11;101714.66;;;1.07;100.00
29461;BME280;16428;47.836;35.106;2024-01-06T06:11:39;101718.88;;;1.25;100.00
29461;BME280;16428;47.836;35.106;2024-01-06T06:14:06;101716.44;;;1.36;100.00
29461;BME280;16428;47.836;35.106;2024-01-06T06:16:34;101711.69;;;1.56;100.00
29461;BME280;16428;47.836;35.106;2024-01-06T06:19:01;101708.88;;;1.45;100.00
29461;BME280;16428;47.836;35.106;2024-01-06T06:21:28;101701.50;;;1.50;100.00
29461;BME280;16428;47.836;35.106;2024-01-06T06:23:55;101710.22;;;1.52;100.00
29461;BME280;16428;47.836;35.106;2024-01-06T06:26:22;101707.16;;;1.44;100.00
29461;BME280;16428;47.836;35.106;2024-01-06T06:28:49;101708.19;;;1.55;100.00
29461;BME280;16428;47.836;35.106;2024-01-06T06:31:16;101705.09;;;1.49;100.00
29461;BME280;16428;47.836;35.106;2024-01-06T06:33:44;101714.53;;;1.81;100.00
29461;BME280;16428;47.836;35.106;2024-01-06T06:36:11;101709.81;;;1.58;100.00
29461;BME280;16428;47.836;35.106;2024-01-06T06:38:38;101720.72;;;1.67;100.00
29461;BME280;16428;47.836;35.106;2024-01-06T06:41:05;101711.31;;;1.76;100.00
29461;BME280;16428;47.836;35.106;2024-01-06T06:43:33;101721.16;;;1.74;100.00
29461;BME280;16428;47.836;35.106;2024-01-06T06:46:00;101722.69;;;1.78;100.00
29461;BME280;16428;47.836;35.106;2024-01-06T06:48:27;101727.00;;;1.93;100.00
29461;BME280;16428;47.836;35.106;2024-01-06T06:50:54;101728.72;;;1.94;100.00
29461;BME280;16428;47.836;35.106;2024-01-06T06:53:22;101729.38;;;1.98;100.00
29461;BME280;16428;47.836;35.106;2024-01-06T06:55:49;101720.94;;;1.91;100.00
29461;BME280;16428;47.836;35.106;2024-01-06T06:58:16;101722.50;;;1.81;100.00
29461;BME280;16428;47.836;35.106;2024-01-06T07:00:43;101732.78;;;1.71;100.00
29461;BME280;16428;47.836;35.106;2024-01-06T07:03:10;101730.06;;;1.45;100.00
29461;BME280;16428;47.836;35.106;2024-01-06T07:05:38;101732.69;;;1.73;100.00
29461;BME280;16428;47.836;35.106;2024-01-06T07:08:06;101744.41;;;1.55;100.00
29461;BME280;16428;47.836;35.106;2024-01-06T07:10:33;101741.94;;;1.23;100.00
29461;BME280;16428;47.836;35.106;2024-01-06T07:13:00;101744.53;;;1.09;100.00
29461;BME280;16428;47.836;35.106;2024-01-06T07:15:27;101743.59;;;1.10;100.00
29461;BME280;16428;47.836;35.106;2024-01-06T07:17:54;101741.81;;;1.11;100.00
29461;BME280;16428;47.836;35.106;2024-01-06T07:20:22;101750.59;;;1.11;100.00
29461;BME280;16428;47.836;35.106;2024-01-06T07:22:49;101760.44;;;1.23;100.00
29461;BME280;16428;47.836;35.106;2024-01-06T07:25:16;101762.06;;;1.26;100.00
29461;BME280;16428;47.836;35.106;2024-01-06T07:27:43;101747.63;;;1.31;100.00
29461;BME280;16428;47.836;35.106;2024-01-06T07:30:10;101750.09;;;1.49;100.00
29461;BME280;16428;47.836;35.106;2024-01-06T07:32:38;101732.31;;;1.36;100.00
29461;BME280;16428;47.836;35.106;2024-01-06T07:35:05;101731.25;;;1.39;100.00
29461;BME280;16428;47.836;35.106;2024-01-06T07:37:34;101736.88;;;1.63;100.00
29461;BME280;16428;47.836;35.106;2024-01-06T07:40:01;101738.38;;;1.81;100.00
29461;BME280;16428;47.836;35.106;2024-01-06T07:42:29;101741.84;;;2.10;100.00
29461;BME280;16428;47.836;35.106;2024-01-06T07:44:56;101751.56;;;2.24;100.00
29461;BME280;16428;47.836;35.106;2024-01-06T07:47:23;101738.91;;;2.00;100.00
29461;BME280;16428;47.836;35.106;2024-01-06T07:49:51;101741.31;;;2.32;100.00
29461;BME280;16428;47.836;35.106;2024-01-06T07:52:20;101737.75;;;2.19;100.00
29461;BME280;16428;47.836;35.106;2024-01-06T07:54:47;101755.84;;;2.53;100.00
29461;BME280;16428;47.836;35.106;2024-01-06T07:57:15;101750.72;;;2.23;100.00
29461;BME280;16428;47.836;35.106;2024-01-06T07:59:42;101760.94;;;2.56;100.00
29461;BME280;16428;47.836;35.106;2024-01-06T08:02:10;101770.19;;;2.63;100.00
29461;BME280;16428;47.836;35.106;2024-01-06T08:04:37;101767.00;;;2.58;100.00
29461;BME280;16428;47.836;35.106;2024-01-06T08:07:04;101762.94;;;2.53;100.00
29461;BME280;16428;47.836;35.106;2024-01-06T08:09:31;101755.75;;;2.55;100.00
29461;BME280;16428;47.836;35.106;2024-01-06T08:11:58;101757.97;;;2.88;100.00
29461;BME280;16428;47.836;35.106;2024-01-06T08:14:25;101746.00;;;2.95;100.00
29461;BME280;16428;47.836;35.106;2024-01-06T08:16:52;101739.81;;;2.81;100.00
29461;BME280;16428;47.836;35.106;2024-01-06T08:19:19;101735.88;;;2.74;100.00
29461;BME280;16428;47.836;35.106;2024-01-06T08:21:48;101734.44;;;3.21;100.00
29461;BME280;16428;47.836;35.106;2024-01-06T08:24:15;101737.13;;;3.34;100.00
29461;BME280;16428;47.836;35.106;2024-01-06T08:26:42;101736.19;;;3.35;100.00
29461;BME280;16428;47.836;35.106;2024-01-06T08:29:09;101738.09;;;3.20;100.00
29461;BME280;16428;47.836;35.106;2024-01-06T08:31:36;101732.53;;;3.23;100.00
29461;BME280;16428;47.836;35.106;2024-01-06T08:34:03;101733.53;;;3.35;100.00
29461;BME280;16428;47.836;35.106;2024-01-06T08:36:34;101731.81;;;3.46;100.00
29461;BME280;16428;47.836;35.106;2024-01-06T08:39:01;101724.81;;;3.58;100.00
29461;BME280;16428;47.836;35.106;2024-01-06T08:41:28;101727.28;;;3.36;100.00
29461;BME280;16428;47.836;35.106;2024-01-06T08:43:56;101734.69;;;3.18;100.00
29461;BME280;16428;47.836;35.106;2024-01-06T08:46:23;101744.66;;;3.27;100.00
29461;BME280;16428;47.836;35.106;2024-01-06T08:48:50;101747.41;;;3.13;100.00
29461;BME280;16428;47.836;35.106;2024-01-06T08:51:17;101742.31;;;3.10;100.00
29461;BME280;16428;47.836;35.106;2024-01-06T08:53:44;101740.00;;;3.43;100.00
29461;BME280;16428;47.836;35.106;2024-01-06T08:56:11;101728.19;;;3.73;100.00
29461;BME280;16428;47.836;35.106;2024-01-06T08:58:38;101722.97;;;3.71;100.00
29461;BME280;16428;47.836;35.106;2024-01-06T09:01:05;101719.69;;;3.68;100.00
29461;BME280;16428;47.836;35.106;2024-01-06T09:03:32;101718.25;;;4.00;100.00
29461;BME280;16428;47.836;35.106;2024-01-06T09:06:00;101719.78;;;4.15;100.00
29461;BME280;16428;47.836;35.106;2024-01-06T09:08:27;101722.19;;;4.07;100.00
29461;BME280;16428;47.836;35.106;2024-01-06T09:10:55;101724.03;;;3.94;100.00
29461;BME280;16428;47.836;35.106;2024-01-06T09:13:24;101718.06;;;3.91;100.00
29461;BME280;16428;47.836;35.106;2024-01-06T09:15:51;101722.41;;;4.28;100.00
29461;BME280;16428;47.836;35.106;2024-01-06T09:18:19;101718.94;;;4.28;100.00
29461;BME280;16428;47.836;35.106;2024-01-06T09:20:46;101718.03;;;4.03;100.00
29461;BME280;16428;47.836;35.106;2024-01-06T09:23:15;101725.84;;;4.17;100.00
29461;BME280;16428;47.836;35.106;2024-01-06T09:25:42;101723.78;;;4.34;100.00
29461;BME280;16428;47.836;35.106;2024-01-06T09:28:09;101717.78;;;4.19;100.00
29461;BME280;16428;47.836;35.106;2024-01-06T09:30:37;101718.94;;;4.28;100.00
29461;BME280;16428;47.836;35.106;2024-01-06T09:33:05;101712.66;;;4.16;100.00
29461;BME280;16428;47.836;35.106;2024-01-06T09:35:32;101696.38;;;4.20;100.00
29461;BME280;16428;47.836;35.106;2024-01-06T09:37:59;101676.31;;;4.40;100.00
29461;BME280;16428;47.836;35.106;2024-01-06T09:40:26;101681.97;;;4.36;100.00
29461;BME280;16428;47.836;35.106;2024-01-06T09:42:54;101672.09;;;4.01;100.00
29461;BME280;16428;47.836;35.106;2024-01-06T09:45:21;101668.78;;;4.58;100.00
29461;BME280;16428;47.836;35.106;2024-01-06T09:47:50;101682.09;;;4.58;100.00
29461;BME280;16428;47.836;35.106;2024-01-06T09:50:18;101664.31;;;4.35;100.00
29461;BME280;16428;47.836;35.106;2024-01-06T09:52:49;101653.41;;;4.27;100.00
29461;BME280;16428;47.836;35.106;2024-01-06T09:55:24;101642.41;;;4.07;100.00
29461;BME280;16428;47.836;35.106;2024-01-06T09:57:53;101632.13;;;4.27;100.00
29461;BME280;16428;47.836;35.106;2024-01-06T10:00:21;101645.28;;;4.52;100.00
29461;BME280;16428;47.836;35.106;2024-01-06T10:02:49;101651.59;;;4.62;100.00
29461;BME280;16428;47.836;35.106;2024-01-06T10:05:18;101646.56;;;4.46;100.00
29461;BME280;16428;47.836;35.106;2024-01-06T10:07:46;101650.63;;;4.63;100.00
29461;BME280;16428;47.836;35.106;2024-01-06T10:10:14;101653.19;;;4.65;100.00
29461;BME280;16428;47.836;35.106;2024-01-06T10:12:42;101630.06;;;4.65;100.00
29461;BME280;16428;47.836;35.106;2024-01-06T10:15:11;101616.97;;;4.51;100.00
29461;BME280;16428;47.836;35.106;2024-01-06T10:17:40;101610.28;;;4.45;100.00
29461;BME280;16428;47.836;35.106;2024-01-06T10:20:12;101601.63;;;4.54;100.00
29461;BME280;16428;47.836;35.106;2024-01-06T10:22:42;101594.72;;;4.52;100.00
29461;BME280;16428;47.836;35.106;2024-01-06T10:25:10;101597.09;;;4.44;100.00
29461;BME280;16428;47.836;35.106;2024-01-06T10:27:39;101594.25;;;3.99;100.00
29461;BME280;16428;47.836;35.106;2024-01-06T10:30:07;101588.94;;;3.99;100.00
29461;BME280;16428;47.836;35.106;2024-01-06T10:32:36;101588.09;;;4.22;100.00
29461;BME280;16428;47.836;35.106;2024-01-06T10:35:04;101579.19;;;4.35;100.00
29461;BME280;16428;47.836;35.106;2024-01-06T10:37:33;101579.13;;;4.12;100.00
29461;BME280;16428;47.836;35.106;2024-01-06T10:40:11;101588.34;;;4.31;100.00
29461;BME280;16428;47.836;35.106;2024-01-06T10:42:40;101580.47;;;4.29;100.00
29461;BME280;16428;47.836;35.106;2024-01-06T10:45:09;101581.59;;;4.27;100.00
29461;BME280;16428;47.836;35.106;2024-01-06T10:47:38;101570.50;;;4.44;100.00
29461;BME280;16428;47.836;35.106;2024-01-06T10:50:06;101573.53;;;4.15;100.00
29461;BME280;16428;47.836;35.106;2024-01-06T10:52:35;101565.78;;;4.36;100.00
29461;BME280;16428;47.836;35.106;2024-01-06T10:55:05;101558.19;;;4.43;100.00
29461;BME280;16428;47.836;35.106;2024-01-06T10:57:33;101549.09;;;4.45;100.00
29461;BME280;16428;47.836;35.106;2024-01-06T11:00:01;101544.50;;;4.36;100.00
29461;BME280;16428;47.836;35.106;2024-01-06T11:02:29;101538.75;;;4.18;100.00
29461;BME280;16428;47.836;35.106;2024-01-06T11:04:57;101539.56;;;4.43;100.00
29461;BME280;16428;47.836;35.106;2024-01-06T11:07:25;101545.38;;;4.59;100.00
29461;BME280;16428;47.836;35.106;2024-01-06T11:10:20;101537.38;;;4.48;100.00
29461;BME280;16428;47.836;35.106;2024-01-06T11:13:06;101538.06;;;4.28;100.00
29461;BME280;16428;47.836;35.106;2024-01-06T11:15:43;101533.94;;;4.23;100.00
29461;BME280;16428;47.836;35.106;2024-01-06T11:18:31;101529.56;;;4.11;100.00
29461;BME280;16428;47.836;35.106;2024-01-06T11:23:41;101523.19;;;4.25;100.00
29461;BME280;16428;47.836;35.106;2024-01-06T11:26:09;101518.75;;;4.37;100.00
29461;BME280;16428;47.836;35.106;2024-01-06T11:28:46;101514.09;;;4.16;100.00
29461;BME280;16428;47.836;35.106;2024-01-06T11:31:14;101510.31;;;4.54;100.00
29461;BME280;16428;47.836;35.106;2024-01-06T11:33:43;101515.34;;;4.35;100.00
29461;BME280;16428;47.836;35.106;2024-01-06T11:36:10;101514.44;;;4.12;100.00
29461;BME280;16428;47.836;35.106;2024-01-06T11:38:41;101504.97;;;4.43;100.00
29461;BME280;16428;47.836;35.106;2024-01-06T11:41:09;101505.00;;;4.54;100.00
29461;BME280;16428;47.836;35.106;2024-01-06T11:43:38;101509.69;;;4.50;100.00
29461;BME280;16428;47.836;35.106;2024-01-06T11:46:09;101501.47;;;4.42;100.00
29461;BME280;16428;47.836;35.106;2024-01-06T11:48:37;101497.59;;;4.46;100.00
29461;BME280;16428;47.836;35.106;2024-01-06T11:51:05;101498.66;;;4.44;100.00
29461;BME280;16428;47.836;35.106;2024-01-06T11:53:33;101485.50;;;4.42;100.00
29461;BME280;16428;47.836;35.106;2024-01-06T11:56:00;101488.19;;;4.53;100.00
29461;BME280;16428;47.836;35.106;2024-01-06T11:58:27;101481.91;;;4.54;100.00
29461;BME280;16428;47.836;35.106;2024-01-06T12:00:56;101485.16;;;4.58;100.00
29461;BME280;16428;47.836;35.106;2024-01-06T12:03:27;101491.81;;;4.75;100.00
29461;BME280;16428;47.836;35.106;2024-01-06T12:06:02;101485.41;;;4.55;100.00
29461;BME280;16428;47.836;35.106;2024-01-06T12:08:30;101490.88;;;4.87;100.00
29461;BME280;16428;47.836;35.106;2024-01-06T12:11:04;101482.13;;;4.74;100.00
29461;BME280;16428;47.836;35.106;2024-01-06T12:13:31;101489.53;;;4.81;100.00
29461;BME280;16428;47.836;35.106;2024-01-06T12:15:59;101471.38;;;4.53;100.00
29461;BME280;16428;47.836;35.106;2024-01-06T12:18:27;101461.44;;;4.66;100.00
29461;BME280;16428;47.836;35.106;2024-01-06T12:20:54;101457.09;;;4.54;100.00
29461;BME280;16428;47.836;35.106;2024-01-06T12:23:28;101448.88;;;4.57;100.00
29461;BME280;16428;47.836;35.106;2024-01-06T12:25:55;101450.81;;;4.66;100.00
29461;BME280;16428;47.836;35.106;2024-01-06T12:28:22;101445.47;;;4.66;100.00
29461;BME280;16428;47.836;35.106;2024-01-06T12:30:49;101452.03;;;4.73;100.00
29461;BME280;16428;47.836;35.106;2024-01-06T12:33:17;101455.03;;;4.91;100.00
29461;BME280;16428;47.836;35.106;2024-01-06T12:35:44;101447.53;;;4.96;100.00
29461;BME280;16428;47.836;35.106;2024-01-06T12:38:11;101439.66;;;4.94;100.00
29461;BME280;16428;47.836;35.106;2024-01-06T12:40:38;101426.00;;;4.88;100.00
29461;BME280;16428;47.836;35.106;2024-01-06T12:43:06;101410.63;;;4.80;100.00
29461;BME280;16428;47.836;35.106;2024-01-06T12:45:33;101418.72;;;5.01;100.00